sensor_id;sensor_type;location;lat;lon;timestamp;pressure;altitude;pressure_sealevel;temperature;humidity
58843;BME280;44614;54.356;10.100;2023-02-11T00:01:44;102298.09;;;3.83;100.00
58843;BME280;44614;54.356;10.100;2023-02-11T00:04:09;102307.53;;;3.89;100.00
58843;BME280;44614;54.356;10.100;2023-02-11T00:06:34;102317.69;;;3.97;100.00
58843;BME280;44614;54.356;10.100;2023-02-11T00:09:00;102300.09;;;3.91;100.00
58843;BME280;44614;54.356;10.100;2023-02-11T00:11:27;102314.41;;;4.03;100.00
58843;BME280;44614;54.356;10.100;2023-02-11T00:13:59;102295.66;;;4.00;100.00
58843;BME280;44614;54.356;10.100;2023-02-11T00:16:25;102338.72;;;4.04;100.00
58843;BME280;44614;54.356;10.100;2023-02-11T00:18:51;102306.09;;;4.04;100.00
58843;BME280;44614;54.356;10.100;2023-02-11T00:21:21;102306.66;;;4.08;100.00
58843;BME280;44614;54.356;10.100;2023-02-11T00:23:47;102304.25;;;4.05;100.00
58843;BME280;44614;54.356;10.100;2023-02-11T00:26:18;102286.78;;;4.07;100.00
58843;BME280;44614;54.356;10.100;2023-02-11T00:28:45;102303.53;;;4.12;100.00
58843;BME280;44614;54.356;10.100;2023-02-11T00:31:12;102287.34;;;4.11;100.00
58843;BME280;44614;54.356;10.100;2023-02-11T00:33:37;102283.47;;;4.13;100.00
58843;BME280;44614;54.356;10.100;2023-02-11T00:36:04;102252.59;;;4.05;100.00
58843;BME280;44614;54.356;10.100;2023-02-11T00:38:30;102272.88;;;4.20;100.00
58843;BME280;44614;54.356;10.100;2023-02-11T00:40:55;102264.00;;;4.18;100.00
58843;BME280;44614;54.356;10.100;2023-02-11T00:43:21;102260.59;;;4.16;100.00
58843;BME280;44614;54.356;10.100;2023-02-11T00:45:46;102275.84;;;4.27;100.00
58843;BME280;44614;54.356;10.100;2023-02-11T00:48:11;102277.44;;;4.29;100.00
58843;BME280;44614;54.356;10.100;2023-02-11T00:50:37;102253.41;;;4.25;100.00
58843;BME280;44614;54.356;10.100;2023-02-11T00:53:02;102268.13;;;4.32;100.00
58843;BME280;44614;54.356;10.100;2023-02-11T00:55:27;102253.81;;;4.30;100.00
58843;BME280;44614;54.356;10.100;2023-02-11T00:57:53;102140.66;;;3.62;100.00
58843;BME280;44614;54.356;10.100;2023-02-11T01:00:18;102270.41;;;4.36;100.00
58843;BME280;44614;54.356;10.100;2023-02-11T01:02:43;102263.94;;;4.37;100.00
58843;BME280;44614;54.356;10.100;2023-02-11T01:05:09;102219.66;;;4.18;100.00
58843;BME280;44614;54.356;10.100;2023-02-11T01:07:34;102258.66;;;4.36;100.00
58843;BME280;44614;54.356;10.100;2023-02-11T01:09:59;102254.22;;;4.35;100.00
58843;BME280;44614;54.356;10.100;2023-02-11T01:12:25;102254.22;;;4.35;100.00
58843;BME280;44614;54.356;10.100;2023-02-11T01:14:50;102256.81;;;4.36;100.00
58843;BME280;44614;54.356;10.100;2023-02-11T01:17:16;102264.69;;;4.39;100.00
58843;BME280;44614;54.356;10.100;2023-02-11T01:19:41;102243.66;;;4.32;100.00
58843;BME280;44614;54.356;10.100;2023-02-11T01:22:07;102267.97;;;4.43;100.00
58843;BME280;44614;54.356;10.100;2023-02-11T01:24:32;102263.38;;;4.44;100.00
58843;BME280;44614;54.356;10.100;2023-02-11T01:26:57;102264.50;;;4.41;100.00
58843;BME280;44614;54.356;10.100;2023-02-11T01:29:23;102267.81;;;4.45;100.00
58843;BME280;44614;54.356;10.100;2023-02-11T01:31:48;102288.41;;;4.47;100.00
58843;BME280;44614;54.356;10.100;2023-02-11T01:34:14;102283.97;;;4.46;100.00
58843;BME280;44614;54.356;10.100;2023-02-11T01:36:40;102295.41;;;4.50;100.00
58843;BME280;44614;54.356;10.100;2023-02-11T01:39:05;102295.97;;;4.53;100.00
58843;BME280;44614;54.356;10.100;2023-02-11T01:41:32;102279.25;;;4.48;100.00
58843;BME280;44614;54.356;10.100;2023-02-11T01:44:25;102285.09;;;4.53;100.00
58843;BME280;44614;54.356;10.100;2023-02-11T01:46:51;102292.41;;;4.53;100.00
58843;BME280;44614;54.356;10.100;2023-02-11T01:49:24;102293.97;;;4.55;100.00
58843;BME280;44614;54.356;10.100;2023-02-11T01:51:55;102286.81;;;4.54;100.00
58843;BME280;44614;54.356;10.100;2023-02-11T01:54:25;102300.72;;;4.51;100.00
58843;BME280;44614;54.356;10.100;2023-02-11T01:57:15;102292.84;;;4.58;100.00
58843;BME280;44614;54.356;10.100;2023-02-11T01:59:56;102282.81;;;4.58;100.00
58843;BME280;44614;54.356;10.100;2023-02-11T02:10:49;102259.56;;;4.64;100.00
58843;BME280;44614;54.356;10.100;2023-02-11T02:13:19;102265.56;;;4.68;100.00
58843;BME280;44614;54.356;10.100;2023-02-11T02:15:55;102252.69;;;4.70;100.00
58843;BME280;44614;54.356;10.100;2023-02-11T02:32:45;102236.53;;;4.86;100.00
58843;BME280;44614;54.356;10.100;2023-02-11T02:36:14;102233.81;;;4.86;100.00
58843;BME280;44614;54.356;10.100;2023-02-11T02:40:46;102245.41;;;4.88;100.00
58843;BME280;44614;54.356;10.100;2023-02-11T02:43:14;102228.00;;;4.81;100.00
58843;BME280;44614;54.356;10.100;2023-02-11T02:45:41;102229.50;;;4.93;100.00
58843;BME280;44614;54.356;10.100;2023-02-11T02:48:06;102228.47;;;4.94;100.00
58843;BME280;44614;54.356;10.100;2023-02-11T02:50:36;102228.84;;;4.99;100.00
58843;BME280;44614;54.356;10.100;2023-02-11T02:58:38;102210.31;;;5.12;100.00
58843;BME280;44614;54.356;10.100;2023-02-11T03:06:30;102203.38;;;5.18;100.00
58843;BME280;44614;54.356;10.100;2023-02-11T03:09:05;102205.66;;;5.23;100.00
58843;BME280;44614;54.356;10.100;2023-02-11T03:11:34;102185.81;;;5.30;100.00
58843;BME280;44614;54.356;10.100;2023-02-11T03:14:05;102187.50;;;5.31;100.00
58843;BME280;44614;54.356;10.100;2023-02-11T03:16:32;102185.81;;;5.30;100.00
58843;BME280;44614;54.356;10.100;2023-02-11T03:19:12;102178.03;;;5.35;100.00
58843;BME280;44614;54.356;10.100;2023-02-11T03:21:40;102182.63;;;5.35;100.00
58843;BME280;44614;54.356;10.100;2023-02-11T03:24:13;102172.72;;;5.34;100.00
58843;BME280;44614;54.356;10.100;2023-02-11T03:26:45;102179.72;;;5.36;100.00
58843;BME280;44614;54.356;10.100;2023-02-11T03:29:29;102175.13;;;5.37;100.00
58843;BME280;44614;54.356;10.100;2023-02-11T03:34:29;102183.53;;;5.44;100.00
58843;BME280;44614;54.356;10.100;2023-02-11T03:37:19;102196.13;;;5.45;100.00
58843;BME280;44614;54.356;10.100;2023-02-11T03:39:50;102194.13;;;5.47;100.00
58843;BME280;44614;54.356;10.100;2023-02-11T03:42:18;102193.66;;;5.51;100.00
58843;BME280;44614;54.356;10.100;2023-02-11T03:44:48;102211.69;;;5.52;100.00
58843;BME280;44614;54.356;10.100;2023-02-11T03:47:19;102202.69;;;5.52;100.00
58843;BME280;44614;54.356;10.100;2023-02-11T03:49:48;102211.56;;;5.54;100.00
58843;BME280;44614;54.356;10.100;2023-02-11T03:52:15;102204.56;;;5.51;100.00
58843;BME280;44614;54.356;10.100;2023-02-11T03:54:43;102207.66;;;5.56;100.00
58843;BME280;44614;54.356;10.100;2023-02-11T03:57:10;102209.53;;;5.56;100.00
58843;BME280;44614;54.356;10.100;2023-02-11T03:59:55;102213.81;;;5.58;100.00
58843;BME280;44614;54.356;10.100;2023-02-11T04:02:40;102216.84;;;5.55;100.00
58843;BME280;44614;54.356;10.100;2023-02-11T04:05:07;102193.88;;;5.58;100.00
58843;BME280;44614;54.356;10.100;2023-02-11T04:07:33;102175.91;;;5.47;100.00
58843;BME280;44614;54.356;10.100;2023-02-11T04:09:58;102182.13;;;5.57;100.00
58843;BME280;44614;54.356;10.100;2023-02-11T04:12:24;102181.13;;;5.58;100.00
58843;BME280;44614;54.356;10.100;2023-02-11T04:14:49;102160.25;;;5.49;100.00
58843;BME280;44614;54.356;10.100;2023-02-11T04:17:15;102108.22;;;5.17;100.00
58843;BME280;44614;54.356;10.100;2023-02-11T04:19:40;102157.44;;;5.59;100.00
58843;BME280;44614;54.356;10.100;2023-02-11T04:22:06;102143.81;;;5.59;100.00
58843;BME280;44614;54.356;10.100;2023-02-11T04:24:31;102153.88;;;5.58;100.00
58843;BME280;44614;54.356;10.100;2023-02-11T04:26:57;102147.25;;;5.43;100.00
58843;BME280;44614;54.356;10.100;2023-02-11T04:29:22;102157.75;;;5.56;100.00
58843;BME280;44614;54.356;10.100;2023-02-11T04:31:48;102139.72;;;5.37;100.00
58843;BME280;44614;54.356;10.100;2023-02-11T04:34:14;102164.59;;;5.60;100.00
58843;BME280;44614;54.356;10.100;2023-02-11T04:36:39;102158.59;;;5.56;100.00
58843;BME280;44614;54.356;10.100;2023-02-11T04:39:05;102180.09;;;5.59;100.00
58843;BME280;44614;54.356;10.100;2023-02-11T04:41:31;102167.47;;;5.58;100.00
58843;BME280;44614;54.356;10.100;2023-02-11T04:43:56;102171.91;;;5.59;100.00
58843;BME280;44614;54.356;10.100;2023-02-11T04:46:22;102140.00;;;5.52;100.00
58843;BME280;44614;54.356;10.100;2023-02-11T04:48:47;102159.00;;;5.61;100.00
58843;BME280;44614;54.356;10.100;2023-02-11T04:51:12;102151.81;;;5.60;100.00
58843;BME280;44614;54.356;10.100;2023-02-11T04:53:38;102167.31;;;5.60;100.00
58843;BME280;44614;54.356;10.100;2023-02-11T04:56:03;102143.59;;;5.52;100.00
58843;BME280;44614;54.356;10.100;2023-02-11T04:58:29;102152.53;;;5.62;100.00
58843;BME280;44614;54.356;10.100;2023-02-11T05:00:54;102143.31;;;5.63;100.00
58843;BME280;44614;54.356;10.100;2023-02-11T05:03:19;102120.84;;;5.61;100.00
58843;BME280;44614;54.356;10.100;2023-02-11T05:05:45;102129.56;;;5.65;100.00
58843;BME280;44614;54.356;10.100;2023-02-11T05:08:10;102113.66;;;5.60;100.00
58843;BME280;44614;54.356;10.100;2023-02-11T05:10:36;102116.06;;;5.63;100.00
58843;BME280;44614;54.356;10.100;2023-02-11T05:13:01;102123.41;;;5.63;100.00
58843;BME280;44614;54.356;10.100;2023-02-11T05:15:28;102109.78;;;5.63;100.00
58843;BME280;44614;54.356;10.100;2023-02-11T05:17:53;102119.66;;;5.64;100.00
58843;BME280;44614;54.356;10.100;2023-02-11T05:20:19;102136.00;;;5.64;100.00
58843;BME280;44614;54.356;10.100;2023-02-11T05:22:45;102142.31;;;5.65;100.00
58843;BME280;44614;54.356;10.100;2023-02-11T05:25:10;102142.16;;;5.66;100.00
58843;BME280;44614;54.356;10.100;2023-02-11T05:27:35;102143.19;;;5.65;100.00
58843;BME280;44614;54.356;10.100;2023-02-11T05:30:01;102146.75;;;5.66;100.00
58843;BME280;44614;54.356;10.100;2023-02-11T05:32:26;102167.22;;;5.70;100.00
58843;BME280;44614;54.356;10.100;2023-02-11T05:34:52;102100.84;;;5.27;100.00
58843;BME280;44614;54.356;10.100;2023-02-11T05:37:17;102164.59;;;5.60;100.00
58843;BME280;44614;54.356;10.100;2023-02-11T05:39:42;102175.72;;;5.67;100.00
58843;BME280;44614;54.356;10.100;2023-02-11T05:42:08;102181.00;;;5.68;100.00
58843;BME280;44614;54.356;10.100;2023-02-11T05:44:33;102192.31;;;5.73;100.00
58843;BME280;44614;54.356;10.100;2023-02-11T05:46:59;102199.47;;;5.74;100.00
58843;BME280;44614;54.356;10.100;2023-02-11T05:49:24;102202.19;;;5.74;100.00
58843;BME280;44614;54.356;10.100;2023-02-11T05:51:49;102190.75;;;5.71;100.00
58843;BME280;44614;54.356;10.100;2023-02-11T05:54:15;102192.84;;;5.77;100.00
58843;BME280;44614;54.356;10.100;2023-02-11T05:56:40;102178.81;;;5.72;100.00
58843;BME280;44614;54.356;10.100;2023-02-11T05:59:06;102119.97;;;5.35;100.00
58843;BME280;44614;54.356;10.100;2023-02-11T06:01:31;102172.81;;;5.68;100.00
58843;BME280;44614;54.356;10.100;2023-02-11T06:03:56;102146.16;;;5.54;100.00
58843;BME280;44614;54.356;10.100;2023-02-11T06:06:23;102157.66;;;5.66;100.00
58843;BME280;44614;54.356;10.100;2023-02-11T06:08:48;102183.66;;;5.78;100.00
58843;BME280;44614;54.356;10.100;2023-02-11T06:11:15;102204.59;;;5.77;100.00
58843;BME280;44614;54.356;10.100;2023-02-11T06:13:40;102180.38;;;5.74;100.00
58843;BME280;44614;54.356;10.100;2023-02-11T06:16:06;102179.84;;;5.71;100.00
58843;BME280;44614;54.356;10.100;2023-02-11T06:18:31;102186.69;;;5.75;100.00
58843;BME280;44614;54.356;10.100;2023-02-11T06:20:58;102151.75;;;5.52;100.00
58843;BME280;44614;54.356;10.100;2023-02-11T06:23:23;102163.44;;;5.62;100.00
58843;BME280;44614;54.356;10.100;2023-02-11T06:25:49;102155.41;;;5.61;100.00
58843;BME280;44614;54.356;10.100;2023-02-11T06:28:15;102176.09;;;5.72;100.00
58843;BME280;44614;54.356;10.100;2023-02-11T06:30:40;102154.53;;;5.60;100.00
58843;BME280;44614;54.356;10.100;2023-02-11T06:33:06;102160.53;;;5.64;100.00
58843;BME280;44614;54.356;10.100;2023-02-11T06:35:31;102185.66;;;5.76;100.00
58843;BME280;44614;54.356;10.100;2023-02-11T06:37:57;102177.59;;;5.66;100.00
58843;BME280;44614;54.356;10.100;2023-02-11T06:40:24;102186.31;;;5.70;100.00
58843;BME280;44614;54.356;10.100;2023-02-11T06:42:50;102204.06;;;5.74;100.00
58843;BME280;44614;54.356;10.100;2023-02-11T06:45:15;102210.06;;;5.77;100.00
58843;BME280;44614;54.356;10.100;2023-02-11T06:47:40;102204.06;;;5.74;100.00
58843;BME280;44614;54.356;10.100;2023-02-11T06:50:10;102205.44;;;5.78;100.00
58843;BME280;44614;54.356;10.100;2023-02-11T06:52:36;102204.19;;;5.72;100.00
58843;BME280;44614;54.356;10.100;2023-02-11T06:55:01;102209.50;;;5.74;100.00
58843;BME280;44614;54.356;10.100;2023-02-11T06:57:28;102200.00;;;5.78;100.00
58843;BME280;44614;54.356;10.100;2023-02-11T06:59:53;102211.44;;;5.81;100.00
58843;BME280;44614;54.356;10.100;2023-02-11T07:02:19;102212.31;;;5.82;100.00
58843;BME280;44614;54.356;10.100;2023-02-11T07:04:45;102213.47;;;5.79;100.00
58843;BME280;44614;54.356;10.100;2023-02-11T07:07:10;102212.31;;;5.82;100.00
58843;BME280;44614;54.356;10.100;2023-02-11T07:09:35;102184.91;;;5.66;100.00
58843;BME280;44614;54.356;10.100;2023-02-11T07:12:01;102217.75;;;5.82;100.00
58843;BME280;44614;54.356;10.100;2023-02-11T07:14:26;102236.13;;;5.80;100.00
58843;BME280;44614;54.356;10.100;2023-02-11T07:16:51;102234.09;;;5.82;100.00
58843;BME280;44614;54.356;10.100;2023-02-11T07:19:16;102250.78;;;5.79;100.00
58843;BME280;44614;54.356;10.100;2023-02-11T07:21:42;102264.28;;;5.80;100.00
58843;BME280;44614;54.356;10.100;2023-02-11T07:24:08;102267.13;;;5.79;100.00
58843;BME280;44614;54.356;10.100;2023-02-11T07:26:34;102279.28;;;5.84;100.00
58843;BME280;44614;54.356;10.100;2023-02-11T07:28:59;102277.91;;;5.80;100.00
58843;BME280;44614;54.356;10.100;2023-02-11T07:31:26;102293.59;;;5.86;100.00
58843;BME280;44614;54.356;10.100;2023-02-11T07:33:54;102284.41;;;5.87;100.00
58843;BME280;44614;54.356;10.100;2023-02-11T07:36:20;102277.19;;;5.78;100.00
58843;BME280;44614;54.356;10.100;2023-02-11T07:38:46;102292.44;;;5.89;100.00
58843;BME280;44614;54.356;10.100;2023-02-11T07:41:14;102290.56;;;5.90;100.00
58843;BME280;44614;54.356;10.100;2023-02-11T07:43:40;102263.00;;;5.75;100.00
58843;BME280;44614;54.356;10.100;2023-02-11T07:46:12;102287.00;;;5.89;100.00
58843;BME280;44614;54.356;10.100;2023-02-11T07:48:37;102290.75;;;5.88;100.00
58843;BME280;44614;54.356;10.100;2023-02-11T07:51:19;102299.47;;;5.92;100.00
58843;BME280;44614;54.356;10.100;2023-02-11T07:53:45;102306.66;;;5.93;100.00
58843;BME280;44614;54.356;10.100;2023-02-11T07:56:13;102305.63;;;5.94;100.00
58843;BME280;44614;54.356;10.100;2023-02-11T07:58:39;102317.41;;;5.94;100.00
58843;BME280;44614;54.356;10.100;2023-02-11T08:01:11;102309.38;;;5.93;100.00
58843;BME280;44614;54.356;10.100;2023-02-11T08:03:37;102301.31;;;5.91;100.00
58843;BME280;44614;54.356;10.100;2023-02-11T08:06:06;102294.00;;;5.92;100.00
58843;BME280;44614;54.356;10.100;2023-02-11T08:08:32;102297.28;;;5.95;100.00
58843;BME280;44614;54.356;10.100;2023-02-11T08:10:57;102309.63;;;5.99;100.00
58843;BME280;44614;54.356;10.100;2023-02-11T08:13:23;102312.34;;;5.99;100.00
58843;BME280;44614;54.356;10.100;2023-02-11T08:15:51;102285.19;;;5.80;100.00
58843;BME280;44614;54.356;10.100;2023-02-11T08:18:16;102299.41;;;6.01;100.00
58843;BME280;44614;54.356;10.100;2023-02-11T08:20:41;102300.78;;;6.05;100.00
58843;BME280;44614;54.356;10.100;2023-02-11T08:23:07;102310.84;;;6.05;100.00
58843;BME280;44614;54.356;10.100;2023-02-11T08:25:32;102331.50;;;6.07;100.00
58843;BME280;44614;54.356;10.100;2023-02-11T08:27:58;102329.09;;;6.04;100.00
58843;BME280;44614;54.356;10.100;2023-02-11T08:30:23;102346.13;;;6.06;100.00
58843;BME280;44614;54.356;10.100;2023-02-11T08:32:49;102337.81;;;6.08;100.00
58843;BME280;44614;54.356;10.100;2023-02-11T08:35:15;102346.69;;;6.10;100.00
58843;BME280;44614;54.356;10.100;2023-02-11T08:37:40;102340.00;;;6.04;100.00
58843;BME280;44614;54.356;10.100;2023-02-11T08:40:06;102351.69;;;6.15;100.00
58843;BME280;44614;54.356;10.100;2023-02-11T08:42:32;102353.41;;;6.16;100.00
58843;BME280;44614;54.356;10.100;2023-02-11T08:44:57;102315.22;;;5.98;100.00
58843;BME280;44614;54.356;10.100;2023-02-11T08:47:22;102331.72;;;6.14;100.00
58843;BME280;44614;54.356;10.100;2023-02-11T08:49:48;102333.28;;;6.17;100.00
58843;BME280;44614;54.356;10.100;2023-02-11T08:52:13;102330.06;;;6.21;100.00
58843;BME280;44614;54.356;10.100;2023-02-11T08:54:39;102335.53;;;6.21;100.00
58843;BME280;44614;54.356;10.100;2023-02-11T08:57:05;102326.91;;;6.26;100.00
58843;BME280;44614;54.356;10.100;2023-02-11T08:59:30;102324.16;;;6.26;100.00
58843;BME280;44614;54.356;10.100;2023-02-11T09:01:55;102338.47;;;6.28;100.00
58843;BME280;44614;54.356;10.100;2023-02-11T09:04:22;102341.69;;;6.23;100.00
58843;BME280;44614;54.356;10.100;2023-02-11T09:06:47;102355.16;;;6.25;100.00
58843;BME280;44614;54.356;10.100;2023-02-11T09:09:14;102354.63;;;6.21;100.00
58843;BME280;44614;54.356;10.100;2023-02-11T09:11:41;102365.47;;;6.31;100.00
58843;BME280;44614;54.356;10.100;2023-02-11T09:14:10;102359.78;;;6.24;100.00
58843;BME280;44614;54.356;10.100;2023-02-11T09:16:39;102351.44;;;6.26;100.00
58843;BME280;44614;54.356;10.100;2023-02-11T09:19:04;102361.94;;;6.39;100.00
58843;BME280;44614;54.356;10.100;2023-02-11T09:21:30;102345.25;;;6.42;100.00
58843;BME280;44614;54.356;10.100;2023-02-11T09:23:56;102333.69;;;6.48;100.00
58843;BME280;44614;54.356;10.100;2023-02-11T09:26:24;102350.28;;;6.54;100.00
58843;BME280;44614;54.356;10.100;2023-02-11T09:28:50;102368.91;;;6.59;100.00
58843;BME280;44614;54.356;10.100;2023-02-11T09:31:21;102367.03;;;6.59;100.00
58843;BME280;44614;54.356;10.100;2023-02-11T09:33:48;102374.91;;;6.63;100.00
58843;BME280;44614;54.356;10.100;2023-02-11T09:36:18;102368.22;;;6.57;100.00
58843;BME280;44614;54.356;10.100;2023-02-11T09:38:43;102363.31;;;6.61;100.00
58843;BME280;44614;54.356;10.100;2023-02-11T09:41:34;102383.31;;;6.69;100.00
58843;BME280;44614;54.356;10.100;2023-02-11T09:44:05;102302.78;;;6.21;100.00
58843;BME280;44614;54.356;10.100;2023-02-11T09:46:35;102379.78;;;6.77;100.00
58843;BME280;44614;54.356;10.100;2023-02-11T09:49:02;102377.06;;;6.77;100.00
58843;BME280;44614;54.356;10.100;2023-02-11T09:51:40;102381.88;;;6.83;100.00
58843;BME280;44614;54.356;10.100;2023-02-11T09:54:33;102383.81;;;6.91;100.00
58843;BME280;44614;54.356;10.100;2023-02-11T09:57:00;102382.94;;;6.90;100.00
58843;BME280;44614;54.356;10.100;2023-02-11T09:59:26;102379.34;;;6.90;100.00
58843;BME280;44614;54.356;10.100;2023-02-11T10:02:13;102383.31;;;6.95;100.00
58843;BME280;44614;54.356;10.100;2023-02-11T10:10:50;102380.28;;;6.98;100.00
58843;BME280;44614;54.356;10.100;2023-02-11T10:13:23;102377.19;;;7.01;100.00
58843;BME280;44614;54.356;10.100;2023-02-11T10:16:18;102377.03;;;7.03;100.00
58843;BME280;44614;54.356;10.100;2023-02-11T10:24:09;102393.31;;;7.13;100.00
58843;BME280;44614;54.356;10.100;2023-02-11T10:26:37;102381.69;;;7.11;100.00
58843;BME280;44614;54.356;10.100;2023-02-11T10:29:52;102376.06;;;7.12;100.00
58843;BME280;44614;54.356;10.100;2023-02-11T10:31:59;102368.69;;;7.04;100.00
58843;BME280;44614;54.356;10.100;2023-02-11T10:34:26;102364.88;;;6.97;100.00
58843;BME280;44614;54.356;10.100;2023-02-11T10:36:52;102383.56;;;7.10;100.00
58843;BME280;44614;54.356;10.100;2023-02-11T10:39:20;102381.00;;;7.08;100.00
58843;BME280;44614;54.356;10.100;2023-02-11T10:41:55;102360.66;;;7.03;100.00
58843;BME280;44614;54.356;10.100;2023-02-11T10:44:31;102390.25;;;7.16;100.00
58843;BME280;44614;54.356;10.100;2023-02-11T10:47:01;102400.00;;;7.18;100.00
58843;BME280;44614;54.356;10.100;2023-02-11T10:49:38;102407.19;;;7.19;100.00
58843;BME280;44614;54.356;10.100;2023-02-11T10:55:13;102418.28;;;7.18;100.00
58843;BME280;44614;54.356;10.100;2023-02-11T10:57:42;102418.75;;;7.13;100.00
58843;BME280;44614;54.356;10.100;2023-02-11T11:02:42;102410.75;;;7.20;100.00
58843;BME280;44614;54.356;10.100;2023-02-11T11:05:20;102399.31;;;7.16;100.00
58843;BME280;44614;54.356;10.100;2023-02-11T11:07:56;102397.28;;;7.18;100.00
58843;BME280;44614;54.356;10.100;2023-02-11T11:12:52;102405.81;;;7.23;100.00
58843;BME280;44614;54.356;10.100;2023-02-11T11:15:21;102424.50;;;7.36;100.00
58843;BME280;44614;54.356;10.100;2023-02-11T11:17:49;102424.88;;;7.41;100.00
58843;BME280;44614;54.356;10.100;2023-02-11T11:20:19;102416.38;;;7.44;100.00
58843;BME280;44614;54.356;10.100;2023-02-11T11:22:46;102402.00;;;7.42;100.00
58843;BME280;44614;54.356;10.100;2023-02-11T11:25:21;102410.53;;;7.47;100.00
58843;BME280;44614;54.356;10.100;2023-02-11T11:27:50;102388.63;;;7.31;100.00
58843;BME280;44614;54.356;10.100;2023-02-11T11:30:17;102381.78;;;7.35;100.00
58843;BME280;44614;54.356;10.100;2023-02-11T11:32:43;102398.09;;;7.45;100.00
58843;BME280;44614;54.356;10.100;2023-02-11T11:35:28;102406.13;;;7.54;100.00
58843;BME280;44614;54.356;10.100;2023-02-11T11:38:02;102382.84;;;7.34;100.00
58843;BME280;44614;54.356;10.100;2023-02-11T11:40:33;102424.94;;;7.57;100.00
58843;BME280;44614;54.356;10.100;2023-02-11T11:43:16;102430.09;;;7.61;100.00
58843;BME280;44614;54.356;10.100;2023-02-11T11:45:56;102402.53;;;7.46;100.00
58843;BME280;44614;54.356;10.100;2023-02-11T11:48:43;102418.94;;;7.54;100.00
58843;BME280;44614;54.356;10.100;2023-02-11T11:51:12;102403.56;;;7.45;100.00
58843;BME280;44614;54.356;10.100;2023-02-11T11:56:21;102422.91;;;7.60;100.00
58843;BME280;44614;54.356;10.100;2023-02-11T11:58:49;102420.50;;;7.56;100.00
58843;BME280;44614;54.356;10.100;2023-02-11T12:01:36;102418.13;;;7.62;100.00
58843;BME280;44614;54.356;10.100;2023-02-11T12:10:28;102426.53;;;7.68;100.00
58843;BME280;44614;54.356;10.100;2023-02-11T12:13:15;102424.63;;;7.61;100.00
58843;BME280;44614;54.356;10.100;2023-02-11T12:26:46;102408.03;;;7.62;100.00
58843;BME280;44614;54.356;10.100;2023-02-11T12:29:29;102443.31;;;7.81;100.00
58843;BME280;44614;54.356;10.100;2023-02-11T12:35:00;102459.06;;;7.88;100.00
58843;BME280;44614;54.356;10.100;2023-02-11T12:37:36;102461.31;;;7.92;100.00
58843;BME280;44614;54.356;10.100;2023-02-11T12:40:41;102467.63;;;7.93;100.00
58843;BME280;44614;54.356;10.100;2023-02-11T12:46:07;102490.03;;;7.96;100.00
58843;BME280;44614;54.356;10.100;2023-02-11T12:59:44;102489.06;;;8.14;100.00
58843;BME280;44614;54.356;10.100;2023-02-11T13:03:10;102496.06;;;8.08;100.00
58843;BME280;44614;54.356;10.100;2023-02-11T13:05:28;102490.59;;;8.08;100.00
58843;BME280;44614;54.356;10.100;2023-02-11T13:08:14;102501.72;;;8.06;100.00
58843;BME280;44614;54.356;10.100;2023-02-11T13:10:46;102515.41;;;8.06;100.00
58843;BME280;44614;54.356;10.100;2023-02-11T13:13:17;102512.97;;;8.03;100.00
58843;BME280;44614;54.356;10.100;2023-02-11T13:16:04;102509.06;;;8.06;100.00
58843;BME280;44614;54.356;10.100;2023-02-11T13:18:44;102511.09;;;8.04;100.00
58843;BME280;44614;54.356;10.100;2023-02-11T13:23:40;102511.09;;;8.04;100.00
58843;BME280;44614;54.356;10.100;2023-02-11T13:31:55;102493.16;;;8.01;100.00
58843;BME280;44614;54.356;10.100;2023-02-11T13:35:24;102510.06;;;8.05;100.00
58843;BME280;44614;54.356;10.100;2023-02-11T13:37:35;102505.13;;;8.09;100.00
58843;BME280;44614;54.356;10.100;2023-02-11T13:40:05;102521.91;;;8.05;100.00
58843;BME280;44614;54.356;10.100;2023-02-11T13:42:32;102527.69;;;8.02;100.00
58843;BME280;44614;54.356;10.100;2023-02-11T13:44:58;102515.47;;;7.89;100.00
58843;BME280;44614;54.356;10.100;2023-02-11T13:47:29;102543.06;;;8.03;100.00
58843;BME280;44614;54.356;10.100;2023-02-11T13:49:56;102538.78;;;8.01;100.00
58843;BME280;44614;54.356;10.100;2023-02-11T13:54:57;102545.59;;;7.97;100.00
58843;BME280;44614;54.356;10.100;2023-02-11T13:57:32;102541.50;;;7.93;100.00
58843;BME280;44614;54.356;10.100;2023-02-11T14:09:32;102516.47;;;7.79;100.00
58843;BME280;44614;54.356;10.100;2023-02-11T14:11:48;102529.84;;;7.82;100.00
58843;BME280;44614;54.356;10.100;2023-02-11T14:19:35;102543.84;;;7.79;100.00
58843;BME280;44614;54.356;10.100;2023-02-11T14:22:30;102530.97;;;7.72;100.00
58843;BME280;44614;54.356;10.100;2023-02-11T14:25:19;102560.28;;;7.88;100.00
58843;BME280;44614;54.356;10.100;2023-02-11T14:27:51;102555.97;;;7.85;100.00
58843;BME280;44614;54.356;10.100;2023-02-11T14:30:26;102557.53;;;7.88;100.00
58843;BME280;44614;54.356;10.100;2023-02-11T14:33:09;102560.97;;;7.90;100.00
58843;BME280;44614;54.356;10.100;2023-02-11T14:35:46;102553.78;;;7.89;100.00
58843;BME280;44614;54.356;10.100;2023-02-11T14:38:37;102571.56;;;7.93;100.00
58843;BME280;44614;54.356;10.100;2023-02-11T14:41:25;102573.31;;;7.94;100.00
58843;BME280;44614;54.356;10.100;2023-02-11T14:43:54;102574.53;;;7.99;100.00
58843;BME280;44614;54.356;10.100;2023-02-11T14:46:23;102586.19;;;8.01;100.00
58843;BME280;44614;54.356;10.100;2023-02-11T14:48:52;102586.53;;;8.06;100.00
58843;BME280;44614;54.356;10.100;2023-02-11T14:51:20;102583.31;;;8.11;100.00
58843;BME280;44614;54.356;10.100;2023-02-11T14:53:51;102589.13;;;8.16;100.00